createdAt,value
2022-09-25T00:02:53.868Z,52.00
2022-09-25T00:07:59.746Z,55.00
2022-09-25T00:13:05.757Z,57.70
2022-09-25T00:18:11.809Z,55.60
2022-09-25T00:23:17.840Z,48.80
2022-09-25T00:28:23.709Z,51.90
2022-09-25T00:33:29.617Z,53.00
2022-09-25T00:38:36.913Z,54.70
2022-09-25T00:43:45.647Z,46.90
2022-09-25T00:48:55.235Z,48.60
2022-09-25T00:54:04.640Z,49.20
2022-09-25T00:59:14.205Z,52.30
2022-09-25T01:04:22.654Z,52.60
2022-09-25T01:09:28.905Z,40.60
2022-09-25T01:14:35.428Z,41.10
2022-09-25T01:19:54.878Z,41.60
2022-09-25T01:25:12.233Z,42.60
2022-09-25T01:30:20.242Z,43.80
2022-09-25T01:35:43.051Z,41.80
2022-09-25T01:40:53.573Z,37.80
2022-09-25T01:46:03.571Z,39.00
2022-09-25T01:51:16.178Z,41.10
2022-09-25T01:56:31.561Z,37.80
2022-09-25T02:01:41.200Z,34.80
2022-09-25T02:06:50.362Z,39.20
2022-09-25T02:12:00.167Z,41.60
2022-09-25T02:17:10.746Z,39.40
2022-09-25T02:22:20.054Z,36.80
2022-09-25T02:27:29.396Z,37.00
2022-09-25T02:32:35.276Z,39.40
2022-09-25T02:37:41.286Z,39.20
2022-09-25T02:42:53.139Z,40.60
2022-09-25T02:48:08.631Z,38.70
2022-09-25T02:53:19.705Z,38.10
2022-09-25T02:58:31.479Z,41.20
2022-09-25T03:03:40.099Z,41.50
2022-09-25T03:08:52.098Z,36.10
2022-09-25T03:14:00.764Z,37.10
2022-09-25T03:19:07.086Z,53.70
2022-09-25T03:24:13.015Z,53.20
2022-09-25T03:29:19.237Z,56.50
2022-09-25T03:34:25.113Z,59.00
2022-09-25T03:39:30.910Z,54.30
2022-09-25T03:44:36.919Z,51.70
2022-09-25T03:49:42.554Z,50.60
2022-09-25T03:54:48.588Z,46.80
2022-09-25T03:59:54.505Z,68.50
2022-09-25T04:05:00.186Z,59.20
2022-09-25T04:10:06.879Z,58.70
2022-09-25T04:15:13.275Z,50.40
2022-09-25T04:20:19.614Z,47.40
2022-09-25T04:25:25.944Z,43.90
2022-09-25T04:30:32.337Z,46.70
2022-09-25T04:35:38.263Z,55.10
2022-09-25T04:40:46.042Z,46.20
2022-09-25T04:45:52.112Z,41.90
2022-09-25T04:50:58.292Z,41.90
2022-09-25T04:56:12.187Z,46.10
2022-09-25T05:01:21.491Z,45.20
2022-09-25T05:06:27.573Z,44.20
2022-09-25T05:11:33.608Z,42.70
2022-09-25T05:16:39.421Z,44.00
2022-09-25T05:21:45.362Z,45.50
2022-09-25T05:26:51.501Z,48.70
2022-09-25T05:31:57.249Z,51.70
2022-09-25T05:37:03.490Z,47.40
2022-09-25T05:42:09.289Z,48.50
2022-09-25T05:47:15.473Z,41.40
2022-09-25T05:52:21.566Z,36.60
2022-09-25T05:57:28.425Z,34.80
2022-09-25T06:02:34.190Z,32.60
2022-09-25T06:07:40.063Z,31.90
2022-09-25T06:12:45.922Z,28.30
2022-09-25T06:17:51.656Z,25.70
2022-09-25T06:22:58.772Z,23.00
2022-09-25T06:28:06.280Z,20.00
2022-09-25T06:33:14.299Z,15.10
2022-09-25T06:38:20.218Z,16.60
2022-09-25T06:43:25.999Z,12.90
2022-09-25T06:48:32.257Z,15.40
2022-09-25T06:53:38.273Z,10.30
2022-09-25T06:58:44.146Z,13.10
2022-09-25T07:03:50.093Z,9.50
2022-09-25T07:08:57.193Z,9.90
2022-09-25T07:14:03.541Z,11.50
2022-09-25T07:19:41.061Z,8.60
2022-09-25T07:24:48.357Z,10.10
2022-09-25T07:29:55.160Z,7.80
2022-09-25T07:35:01.589Z,11.40
2022-09-25T07:40:12.745Z,7.10
2022-09-25T07:45:18.937Z,7.40
2022-09-25T07:50:25.073Z,7.00
2022-09-25T07:55:30.942Z,8.00
2022-09-25T08:00:36.772Z,7.70
2022-09-25T08:05:43.210Z,6.50
2022-09-25T08:11:02.170Z,7.40
2022-09-25T08:16:42.026Z,7.00
2022-09-25T08:21:55.937Z,6.10
2022-09-25T08:27:01.707Z,5.50
2022-09-25T08:32:49.204Z,7.90
2022-09-25T08:39:20.633Z,5.80
2022-09-25T08:51:21.443Z,4.80
2022-09-25T08:56:29.468Z,6.50
2022-09-25T09:01:46.309Z,6.20
2022-09-25T09:07:25.022Z,4.20
2022-09-25T09:12:34.292Z,3.00
2022-09-25T09:17:43.506Z,3.60
2022-09-25T09:22:53.218Z,3.80
2022-09-25T09:28:30.383Z,3.80
2022-09-25T09:35:04.186Z,2.10
2022-09-25T09:40:47.319Z,2.70
2022-09-25T09:45:59.175Z,2.40
2022-09-25T09:51:11.239Z,4.40
2022-09-25T09:56:22.952Z,3.00
2022-09-25T10:01:42.002Z,3.10
2022-09-25T10:06:51.225Z,3.20
2022-09-25T10:12:01.980Z,5.80
2022-09-25T10:17:12.656Z,3.60
2022-09-25T10:22:21.646Z,2.90
2022-09-25T10:27:35.870Z,4.20
2022-09-25T10:32:57.211Z,4.90
2022-09-25T10:38:05.038Z,4.10
2022-09-25T10:43:24.205Z,3.10
2022-09-25T10:48:52.116Z,3.20
2022-09-25T10:54:13.537Z,4.00
2022-09-25T10:59:23.588Z,3.80
2022-09-25T11:04:32.216Z,3.50
2022-09-25T11:09:44.959Z,5.10
2022-09-25T11:14:58.265Z,3.30
2022-09-25T11:20:27.665Z,3.30
2022-09-25T11:25:42.064Z,3.10
2022-09-25T11:30:54.270Z,4.80
2022-09-25T11:36:06.125Z,4.30
2022-09-25T11:41:23.402Z,3.00
2022-09-25T11:46:39.369Z,5.70
2022-09-25T11:52:28.264Z,3.50
2022-09-25T11:57:45.935Z,4.00
2022-09-25T12:03:07.412Z,4.10
2022-09-25T12:08:27.072Z,3.70
2022-09-25T12:13:44.715Z,5.60
2022-09-25T12:19:13.054Z,6.80
2022-09-25T12:24:35.463Z,4.20
2022-09-25T12:29:58.007Z,5.90
2022-09-25T12:35:28.376Z,9.90
2022-09-25T12:40:38.903Z,5.90
2022-09-25T12:45:49.376Z,7.20
2022-09-25T12:51:05.394Z,4.00
2022-09-25T12:56:16.334Z,6.10
2022-09-25T13:01:28.118Z,5.10
2022-09-25T13:06:47.944Z,7.00
2022-09-25T13:12:00.484Z,7.10
2022-09-25T13:17:10.545Z,7.20
2022-09-25T13:22:21.811Z,10.00
2022-09-25T13:27:35.361Z,6.60
2022-09-25T13:32:50.867Z,7.00
2022-09-25T13:38:09.675Z,7.10
2022-09-25T13:43:26.833Z,10.40
2022-09-25T13:48:37.755Z,7.30
2022-09-25T13:59:20.390Z,6.20
2022-09-25T14:04:39.183Z,7.20
2022-09-25T14:09:49.974Z,5.70
2022-09-25T14:15:01.326Z,9.30
2022-09-25T14:20:27.903Z,8.10
2022-09-25T14:25:40.612Z,9.80
2022-09-25T14:31:08.638Z,9.70
2022-09-25T14:36:27.874Z,6.90
2022-09-25T14:41:52.949Z,7.10
2022-09-25T14:46:59.292Z,8.70
2022-09-25T14:52:09.507Z,9.40
2022-09-25T14:57:25.572Z,9.30
2022-09-25T15:02:36.929Z,8.90
2022-09-25T15:07:46.363Z,11.00
2022-09-25T15:12:53.258Z,8.90
2022-09-25T15:18:02.467Z,6.30
2022-09-25T15:23:15.314Z,6.70
2022-09-25T15:28:25.270Z,9.20
2022-09-25T15:33:34.072Z,22.40
2022-09-25T15:38:40.918Z,10.40
2022-09-25T15:43:47.023Z,19.40
2022-09-25T15:48:56.227Z,18.20
2022-09-25T15:54:04.141Z,22.50
2022-09-25T15:59:20.079Z,26.10
2022-09-25T16:04:39.215Z,28.00
2022-09-25T16:09:48.400Z,27.40
2022-09-25T16:14:56.238Z,20.60
2022-09-25T16:20:05.765Z,20.70
2022-09-25T16:25:22.119Z,17.30
2022-09-25T16:30:28.064Z,26.10
2022-09-25T16:36:05.254Z,21.90
2022-09-25T16:41:07.539Z,20.90
2022-09-25T16:46:18.486Z,25.40
2022-09-25T16:51:30.191Z,24.00
2022-09-25T16:56:36.222Z,27.30
2022-09-25T17:01:42.204Z,31.20
2022-09-25T17:06:48.620Z,34.40
2022-09-25T17:11:59.320Z,38.50
2022-09-25T17:17:05.087Z,46.50
2022-09-25T17:22:11.732Z,42.80
2022-09-25T17:27:18.146Z,44.10
2022-09-25T17:32:24.045Z,35.60
2022-09-25T17:37:29.940Z,30.10
2022-09-25T17:42:36.025Z,32.60
2022-09-25T17:47:42.245Z,46.70
2022-09-25T17:52:48.262Z,53.50
2022-09-25T17:57:54.097Z,63.10
2022-09-25T18:02:59.882Z,71.60
2022-09-25T18:08:06.178Z,60.60
2022-09-25T18:13:15.355Z,58.10
2022-09-25T18:18:21.346Z,56.90
2022-09-25T18:23:28.097Z,70.70
2022-09-25T18:28:34.260Z,76.20
2022-09-25T18:33:42.270Z,85.10
2022-09-25T18:38:51.475Z,114.70
2022-09-25T18:43:58.051Z,143.60
2022-09-25T18:49:04.004Z,87.60
2022-09-25T18:54:14.437Z,58.90
2022-09-25T18:59:20.572Z,87.80
2022-09-25T19:04:26.791Z,131.00
2022-09-25T19:09:32.676Z,119.80
2022-09-25T19:14:38.669Z,261.40
2022-09-25T19:19:45.044Z,301.10
2022-09-25T19:33:34.528Z,138.80
2022-09-25T19:38:40.625Z,122.70
2022-09-25T19:43:46.693Z,116.60
2022-09-25T19:48:52.565Z,110.30
2022-09-25T19:53:58.365Z,93.40
2022-09-25T19:59:05.655Z,76.40
2022-09-25T20:04:18.011Z,70.90
2022-09-25T20:09:26.942Z,78.10
2022-09-25T20:14:32.798Z,109.80
2022-09-25T20:19:38.751Z,121.60
2022-09-25T20:24:44.579Z,110.00
2022-09-25T20:29:50.472Z,133.40
2022-09-25T20:34:56.329Z,107.20
2022-09-25T20:40:02.581Z,88.30
2022-09-25T20:45:10.144Z,74.20
2022-09-25T20:50:16.608Z,63.20
2022-09-25T20:55:22.656Z,61.40
2022-09-25T21:00:29.273Z,65.70
2022-09-25T21:05:39.566Z,69.50
2022-09-25T21:10:45.811Z,70.90
2022-09-25T21:15:52.001Z,64.80
2022-09-25T21:21:01.886Z,59.60
2022-09-25T21:26:13.566Z,57.70
2022-09-25T21:31:22.299Z,63.20
2022-09-25T21:36:29.524Z,68.80
2022-09-25T21:41:35.781Z,91.50
2022-09-25T21:46:41.788Z,112.70
2022-09-25T21:51:48.419Z,125.10
2022-09-25T21:56:54.447Z,128.10
2022-09-25T22:02:00.256Z,106.60
2022-09-25T22:07:06.661Z,86.20
2022-09-25T22:12:12.367Z,74.80
2022-09-25T22:17:18.486Z,71.90
2022-09-25T22:22:24.402Z,63.20
2022-09-25T22:27:30.286Z,57.10
2022-09-25T22:32:36.630Z,57.80
2022-09-25T22:37:42.495Z,59.90
2022-09-25T22:42:48.483Z,56.30
2022-09-25T22:47:54.431Z,53.50
2022-09-25T22:53:00.172Z,51.60
2022-09-25T22:58:06.075Z,48.90
2022-09-25T23:03:12.227Z,51.90
2022-09-25T23:08:18.171Z,52.30
2022-09-25T23:13:24.212Z,47.80
2022-09-25T23:18:33.570Z,43.30
2022-09-25T23:23:39.607Z,45.80
2022-09-25T23:28:45.316Z,46.50
2022-09-25T23:33:51.408Z,84.70
2022-09-25T23:38:59.183Z,86.20
2022-09-25T23:44:10.372Z,87.70
2022-09-25T23:49:16.477Z,64.60
2022-09-25T23:54:22.997Z,48.70
2022-09-25T23:59:29.158Z,48.80
